Time;durP1;ratioP1;P1;durP2;ratioP2;P2;SDS_P1;SDS_P2;PMS_P1;PMS_P2;Temp;Humidity;BMP_temperature;BMP_pressure;BME280_temperature;BME280_humidity;BME280_pressure;Samples;Min_cycle;Max_cycle;Signal;HPM_P1;HPM_P2
2020/12/21 00:05:30;;;;;;;20.00;7.57;;;;;;;7.77;71.96;101920.53;5914721;23;21003;-81
2020/12/21 00:08:00;;;;;;;17.20;5.38;;;;;;;7.78;72.38;101927.56;4935731;29;20053;-81
2020/12/21 00:10:30;;;;;;;15.65;5.03;;;;;;;7.81;72.23;101916.97;4926863;29;20036;-81
2020/12/21 00:12:57;;;;;;;17.52;5.78;;;;;;;7.83;71.84;101924.84;4942908;29;20048;-81
2020/12/21 00:15:24;;;;;;;15.18;5.10;;;;;;;7.79;72.05;101921.38;4946079;29;20047;-81
2020/12/21 00:17:50;;;;;;;14.18;4.65;;;;;;;7.78;71.94;101917.03;4944705;29;20040;-81
2020/12/21 00:20:17;;;;;;;17.48;5.50;;;;;;;7.74;71.72;101915.31;4930767;29;20107;-81
2020/12/21 00:22:44;;;;;;;17.35;4.88;;;;;;;7.71;72.35;101920.66;4947864;29;20062;-81
2020/12/21 00:25:10;;;;;;;14.35;5.10;;;;;;;7.72;72.02;101918.00;4949107;29;20054;-81
2020/12/21 00:27:37;;;;;;;20.15;5.70;;;;;;;7.71;71.96;101915.38;4947148;29;20044;-80
2020/12/21 00:30:05;;;;;;;13.40;4.90;;;;;;;7.69;71.79;101914.53;4945943;29;20107;-81
2020/12/21 00:32:33;;;;;;;18.98;5.15;;;;;;;7.67;71.89;101918.97;4934963;29;20075;-81
2020/12/21 00:35:00;;;;;;;17.63;5.18;;;;;;;7.66;72.28;101906.66;4947125;29;20031;-81
2020/12/21 00:37:27;;;;;;;21.65;5.35;;;;;;;7.66;72.12;101906.66;4946815;29;20063;-81
2020/12/21 00:39:53;;;;;;;18.75;5.05;;;;;;;7.67;72.07;101914.56;4941665;29;20115;-81
2020/12/21 00:42:19;;;;;;;16.67;4.80;;;;;;;7.68;72.19;101910.13;4936955;29;20051;-81
2020/12/21 00:44:46;;;;;;;18.92;5.68;;;;;;;7.68;72.47;101910.13;4922888;29;20484;-80
2020/12/21 00:47:12;;;;;;;19.02;5.07;;;;;;;7.70;72.16;101913.63;4936145;29;20043;-81
2020/12/21 00:49:39;;;;;;;14.93;4.95;;;;;;;7.72;72.20;101906.56;4926219;29;20048;-81
2020/12/21 00:52:05;;;;;;;16.63;5.45;;;;;;;7.72;72.28;101901.28;4935035;29;20419;-80
2020/12/21 00:54:31;;;;;;;14.02;5.03;;;;;;;7.73;72.41;101897.75;4941758;29;20412;-81
2020/12/21 00:56:58;;;;;;;19.45;5.07;;;;;;;7.74;72.59;101907.41;4939439;29;20051;-81
2020/12/21 00:59:24;;;;;;;15.85;4.50;;;;;;;7.76;72.12;101908.25;4925790;29;20071;-81
2020/12/21 01:01:50;;;;;;;20.70;4.80;;;;;;;7.78;72.25;101909.13;4944086;29;20043;-81
2020/12/21 01:04:17;;;;;;;18.30;4.78;;;;;;;7.79;72.15;101906.44;4946210;29;20050;-81
2020/12/21 01:06:43;;;;;;;18.80;5.07;;;;;;;7.79;72.14;101905.56;4917330;29;20040;-81
2020/12/21 01:09:10;;;;;;;17.52;4.90;;;;;;;7.78;71.91;101914.38;4931715;29;20044;-81
2020/12/21 01:11:39;;;;;;;15.85;5.05;;;;;;;7.75;71.96;101917.06;4951344;29;20118;-81
2020/12/21 01:14:05;;;;;;;18.63;5.38;;;;;;;7.74;72.45;101910.03;4943486;29;20051;-81
2020/12/21 01:16:31;;;;;;;16.50;4.75;;;;;;;7.74;72.14;101904.75;4942881;29;20058;-81
2020/12/21 01:18:57;;;;;;;12.20;4.22;;;;;;;7.74;72.39;101910.94;4940715;29;20532;-81
2020/12/21 01:21:28;;;;;;;17.95;4.75;;;;;;;7.74;72.19;101904.75;4937823;29;20520;-81
2020/12/21 01:23:55;;;;;;;18.55;4.93;;;;;;;7.77;72.58;101899.44;4928795;29;20047;-81
2020/12/21 01:26:22;;;;;;;17.63;4.78;;;;;;;7.75;72.28;101895.97;4942419;29;20051;-81
2020/12/21 01:28:49;;;;;;;16.55;4.93;;;;;;;7.71;72.16;101902.19;4946897;29;20126;-81
2020/12/21 01:31:17;;;;;;;14.25;4.68;;;;;;;7.68;72.20;101904.88;4939711;29;20104;-81
2020/12/21 01:33:44;;;;;;;17.15;4.78;;;;;;;7.66;72.20;101899.63;4939446;29;20044;-81
2020/12/21 01:36:11;;;;;;;17.27;4.28;;;;;;;7.65;72.33;101907.53;4942158;29;20403;-80
2020/12/21 01:38:37;;;;;;;17.33;4.75;;;;;;;7.59;72.16;101906.75;4946052;29;20039;-80
2020/12/21 01:41:03;;;;;;;18.88;4.28;;;;;;;7.55;72.31;101899.81;4945537;29;20035;-81
2020/12/21 01:43:30;;;;;;;16.30;4.40;;;;;;;7.54;72.39;101903.31;4939379;29;20133;-80
2020/12/21 01:45:57;;;;;;;18.35;4.93;;;;;;;7.53;72.19;101906.84;4927438;29;20567;-80
2020/12/21 01:48:23;;;;;;;15.35;4.47;;;;;;;7.50;72.02;101906.91;4917755;29;20500;-80
2020/12/21 01:50:49;;;;;;;14.45;4.80;;;;;;;7.49;72.68;101905.16;4928468;29;20045;-80
2020/12/21 01:53:15;;;;;;;14.57;4.50;;;;;;;7.48;72.27;101903.41;4927000;29;20082;-80
2020/12/21 01:55:43;;;;;;;14.40;4.70;;;;;;;7.49;72.65;101905.16;4923814;29;20046;-80
2020/12/21 01:58:09;;;;;;;20.38;4.80;;;;;;;7.48;72.36;101908.69;4927851;29;20050;-80
2020/12/21 02:00:35;;;;;;;15.68;4.53;;;;;;;7.49;72.37;101909.56;4931516;29;20044;-81
2020/12/21 02:03:08;;;;;;;22.20;4.72;;;;;;;7.52;72.75;101920.06;4902359;29;20041;-81
2020/12/21 02:05:36;;;;;;;12.65;4.47;;;;;;;7.50;72.81;101912.19;4938233;29;20047;-81
2020/12/21 02:08:02;;;;;;;18.08;4.70;;;;;;;7.51;72.27;101913.91;4947983;29;20036;-81
2020/12/21 02:10:29;;;;;;;17.65;4.78;;;;;;;7.51;72.65;101919.16;4927074;29;20511;-81
2020/12/21 02:12:55;;;;;;;14.30;4.35;;;;;;;7.51;72.38;101918.31;4935452;29;20048;-81
2020/12/21 02:15:21;;;;;;;13.90;4.40;;;;;;;7.50;72.50;101908.69;4937994;29;20055;-81
2020/12/21 02:17:47;;;;;;;17.23;4.65;;;;;;;7.52;72.61;101914.78;4936101;29;20103;-81
2020/12/21 02:20:13;;;;;;;16.75;4.50;;;;;;;7.53;72.86;101911.25;4948872;29;20095;-81
2020/12/21 02:22:40;;;;;;;17.48;4.38;;;;;;;7.53;72.30;101912.09;4945156;28;20420;-81
2020/12/21 02:25:06;;;;;;;20.73;4.43;;;;;;;7.54;72.53;101913.88;4928321;29;20071;-81
2020/12/21 02:27:32;;;;;;;13.15;3.97;;;;;;;7.55;72.43;101909.44;4928471;29;20044;-81
2020/12/21 02:29:58;;;;;;;14.10;4.13;;;;;;;7.56;72.49;101906.81;4933867;29;20053;-81
2020/12/21 02:32:24;;;;;;;15.00;4.22;;;;;;;7.59;72.98;101906.75;4922543;29;20039;-81
2020/12/21 02:34:52;;;;;;;14.10;4.00;;;;;;;7.63;72.50;101901.41;4935949;29;20048;-81
2020/12/21 02:37:18;;;;;;;11.85;4.07;;;;;;;7.64;72.42;101903.19;4942551;29;20047;-80
2020/12/21 02:39:44;;;;;;;15.32;4.90;;;;;;;7.66;72.77;101902.25;4941096;29;20094;-81
2020/12/21 02:42:10;;;;;;;12.93;3.83;;;;;;;7.67;72.42;101908.41;4922181;29;20040;-81
2020/12/21 02:44:36;;;;;;;14.38;3.90;;;;;;;7.67;72.67;101903.16;4922728;29;20143;-80
2020/12/21 02:47:04;;;;;;;20.40;4.47;;;;;;;7.68;72.75;101899.59;4938705;29;20036;-81
2020/12/21 02:49:30;;;;;;;18.85;4.75;;;;;;;7.67;72.57;101903.16;4947769;29;20020;-81
2020/12/21 02:51:56;;;;;;;13.60;3.90;;;;;;;7.66;72.65;101896.13;4943667;29;20516;-80
2020/12/21 02:54:22;;;;;;;14.00;3.95;;;;;;;7.65;72.63;101900.53;4945137;29;20084;-80
2020/12/21 02:56:52;;;;;;;13.20;4.40;;;;;;;7.65;72.86;101905.81;4943521;29;20079;-81
2020/12/21 02:59:19;;;;;;;9.88;4.05;;;;;;;7.64;72.63;101897.91;4945245;29;20099;-81
2020/12/21 03:01:45;;;;;;;16.77;4.00;;;;;;;7.64;72.55;101903.19;4943715;29;20031;-81
2020/12/21 03:04:11;;;;;;;11.50;3.40;;;;;;;7.63;72.54;101896.16;4943066;29;20036;-80
2020/12/21 03:06:37;;;;;;;14.20;3.63;;;;;;;7.63;72.50;101896.16;4939163;29;20501;-80
2020/12/21 03:09:04;;;;;;;12.10;3.47;;;;;;;7.59;72.25;101890.94;4940149;29;20071;-80
2020/12/21 03:11:30;;;;;;;10.52;3.53;;;;;;;7.59;72.52;101890.94;4941255;29;20067;-80
2020/12/21 03:13:56;;;;;;;15.55;4.00;;;;;;;7.58;72.77;101878.66;4943537;29;20051;-81
2020/12/21 03:16:25;;;;;;;13.98;3.80;;;;;;;7.59;72.51;101880.41;4945789;29;20408;-80
2020/12/21 03:18:52;;;;;;;14.20;4.05;;;;;;;7.58;72.55;101873.38;4947760;29;20039;-81
2020/12/21 03:21:18;;;;;;;11.65;3.95;;;;;;;7.62;72.99;101875.97;4928395;29;20130;-80
2020/12/21 03:23:44;;;;;;;15.68;3.85;;;;;;;7.60;72.74;101882.13;4944441;29;20111;-80
2020/12/21 03:26:11;;;;;;;14.57;3.22;;;;;;;7.60;72.74;101876.84;4942792;29;20028;-79
2020/12/21 03:28:37;;;;;;;13.70;3.53;;;;;;;7.65;73.00;101887.34;4939221;29;20096;-79
2020/12/21 03:31:03;;;;;;;15.70;3.78;;;;;;;7.69;72.67;101880.25;4944590;29;20048;-79
2020/12/21 03:33:30;;;;;;;18.45;3.50;;;;;;;7.71;72.74;101883.75;4923861;29;20045;-79
2020/12/21 03:35:56;;;;;;;14.80;3.70;;;;;;;7.71;72.37;101883.75;4935641;29;20040;-80
2020/12/21 03:38:22;;;;;;;14.40;3.40;;;;;;;7.71;72.81;101883.75;4915971;29;20059;-80
2020/12/21 03:40:48;;;;;;;17.48;3.58;;;;;;;7.71;72.62;101883.75;4937236;29;20064;-80
2020/12/21 03:43:14;;;;;;;9.27;3.10;;;;;;;7.69;72.48;101874.97;4938253;29;20068;-80
2020/12/21 03:45:41;;;;;;;15.13;3.92;;;;;;;7.67;72.43;101879.41;4941268;29;20063;-81
2020/12/21 03:48:07;;;;;;;15.13;3.45;;;;;;;7.60;72.45;101892.66;4918678;29;20507;-82
2020/12/21 03:50:33;;;;;;;18.83;3.85;;;;;;;7.55;72.23;101905.06;4933438;29;20055;-81
2020/12/21 03:52:59;;;;;;;13.23;3.67;;;;;;;7.49;72.42;101894.59;4946843;29;20059;-80
2020/12/21 03:55:25;;;;;;;13.68;3.53;;;;;;;7.45;72.73;101892.91;4942757;29;20044;-81
2020/12/21 03:57:51;;;;;;;16.00;3.40;;;;;;;7.43;72.71;101894.69;4945052;29;20051;-80
2020/12/21 04:00:16;;;;;;;12.18;3.72;;;;;;;7.40;72.39;101884.19;4945524;29;20051;-79
2020/12/21 04:02:43;;;;;;;15.75;3.65;;;;;;;7.37;72.82;101879.00;4944898;29;20075;-80
2020/12/21 04:05:09;;;;;;;12.93;3.92;;;;;;;7.36;72.60;101866.69;4941245;28;20056;-80
2020/12/21 04:07:36;;;;;;;14.98;3.70;;;;;;;7.37;72.92;101871.94;4929373;29;20103;-79
2020/12/21 04:10:06;;;;;;;14.55;3.70;;;;;;;7.39;72.87;101861.38;4943375;29;20044;-80
2020/12/21 04:12:33;;;;;;;11.07;3.70;;;;;;;7.43;72.84;101864.84;4926384;29;20055;-80
2020/12/21 04:14:59;;;;;;;12.95;3.78;;;;;;;7.45;72.81;101868.34;4947726;29;20051;-81
2020/12/21 04:17:26;;;;;;;14.32;4.00;;;;;;;7.43;72.77;101868.34;4937674;29;20123;-80
2020/12/21 04:19:52;;;;;;;18.95;3.42;;;;;;;7.41;72.28;101883.31;4939050;29;20047;-80
2020/12/21 04:22:18;;;;;;;15.98;3.67;;;;;;;7.36;72.59;101877.22;4950894;28;20042;-81
2020/12/21 04:24:45;;;;;;;19.50;4.10;;;;;;;7.33;72.39;101866.75;4927714;29;20056;-81
2020/12/21 04:27:11;;;;;;;9.90;3.55;;;;;;;7.34;72.57;101865.84;4933383;29;20044;-80
2020/12/21 04:29:37;;;;;;;14.95;3.33;;;;;;;7.33;72.54;101856.22;4947944;29;20039;-81
2020/12/21 04:32:04;;;;;;;16.58;3.92;;;;;;;7.37;72.39;101860.53;4950472;29;20091;-81
2020/12/21 04:34:30;;;;;;;18.05;4.07;;;;;;;7.38;72.73;101859.63;4932637;29;20035;-81
2020/12/21 04:36:56;;;;;;;11.63;3.65;;;;;;;7.41;72.87;101854.31;4946595;29;20068;-81
2020/12/21 04:39:23;;;;;;;10.82;3.35;;;;;;;7.46;72.70;101847.22;4948632;29;20702;-81
2020/12/21 04:41:57;;;;;;;14.30;3.33;;;;;;;7.51;73.05;101840.09;4946187;29;20051;-80
2020/12/21 04:44:24;;;;;;;9.40;3.60;;;;;;;7.55;72.91;101844.44;4933229;29;20435;-81
2020/12/21 04:46:55;;;;;;;14.35;3.63;;;;;;;7.59;72.62;101830.31;4943495;29;20399;-80
2020/12/21 04:49:22;;;;;;;14.35;3.55;;;;;;;7.63;72.84;101832.88;4946258;29;20487;-80
2020/12/21 04:51:50;;;;;;;17.10;3.63;;;;;;;7.67;72.85;101835.44;4941867;29;20499;-80
2020/12/21 04:54:19;;;;;;;16.55;3.63;;;;;;;7.70;72.65;101830.09;4939198;29;20048;-81
2020/12/21 04:56:46;;;;;;;14.27;3.88;;;;;;;7.74;72.83;101839.72;4942048;29;20048;-80
2020/12/21 04:59:13;;;;;;;13.75;3.55;;;;;;;7.79;72.97;101829.09;4943564;29;20044;-81
2020/12/21 05:01:42;;;;;;;19.17;3.78;;;;;;;7.83;72.63;101825.50;4947156;29;20040;-80
2020/12/21 05:04:08;;;;;;;12.20;3.35;;;;;;;7.87;72.71;101832.44;4950139;29;20048;-81
2020/12/21 05:06:34;;;;;;;14.90;3.60;;;;;;;7.91;72.68;101823.59;4947890;29;20047;-80
2020/12/21 05:09:10;;;;;;;11.50;3.15;;;;;;;7.95;72.86;101817.38;4945266;29;20040;-80
2020/12/21 05:11:40;;;;;;;12.40;3.70;;;;;;;8.01;72.74;101823.44;4943090;29;20043;-80
2020/12/21 05:14:08;;;;;;;13.13;3.00;;;;;;;8.06;72.47;101826.84;4943269;29;20357;-81
2020/12/21 05:16:34;;;;;;;9.55;3.00;;;;;;;8.09;72.71;101816.25;4935858;29;20051;-81
2020/12/21 05:19:00;;;;;;;14.73;3.10;;;;;;;8.13;72.89;101813.50;4925625;29;20048;-81
2020/12/21 05:21:28;;;;;;;16.55;3.70;;;;;;;8.14;72.76;101799.44;4935865;29;20052;-80
2020/12/21 05:24:00;;;;;;;14.23;3.50;;;;;;;8.18;72.60;101805.50;4918886;29;20104;-80
2020/12/21 05:26:32;;;;;;;12.40;3.22;;;;;;;8.21;72.76;101800.16;4929036;29;20067;-80
2020/12/21 05:28:59;;;;;;;11.55;2.90;;;;;;;8.23;72.52;101798.38;4942588;29;20051;-80
2020/12/21 05:31:28;;;;;;;10.80;3.20;;;;;;;8.24;72.62;101788.69;4921281;29;20048;-79
2020/12/21 05:33:54;;;;;;;9.65;3.10;;;;;;;8.25;72.63;101801.84;4915339;29;20077;-79
2020/12/21 05:36:40;;;;;;;12.07;3.03;;;;;;;8.28;72.43;101807.06;4944771;29;20050;-79
2020/12/21 05:39:06;;;;;;;10.15;2.95;;;;;;;8.30;72.74;101804.41;4933163;29;20044;-80
2020/12/21 05:41:32;;;;;;;14.63;3.10;;;;;;;8.32;72.46;101792.88;4938179;29;20036;-81
2020/12/21 05:44:04;;;;;;;14.20;2.95;;;;;;;8.35;72.76;101786.69;4935841;29;20468;-80
2020/12/21 05:46:30;;;;;;;9.48;3.28;;;;;;;8.36;72.39;101788.44;4927160;28;20028;-79
2020/12/21 05:48:58;;;;;;;10.93;3.30;;;;;;;8.35;72.28;101787.56;4941326;28;20070;-80
2020/12/21 05:51:34;;;;;;;12.80;3.65;;;;;;;8.36;72.28;101786.69;4928493;29;20062;-80
2020/12/21 05:54:02;;;;;;;14.68;3.50;;;;;;;8.37;72.41;101784.91;4931557;29;20051;-81
2020/12/21 05:56:30;;;;;;;8.85;3.22;;;;;;;8.38;72.29;101790.16;4938303;29;20039;-79
2020/12/21 05:58:57;;;;;;;11.25;3.38;;;;;;;8.37;72.43;101785.75;4928541;29;20056;-81
2020/12/21 06:01:23;;;;;;;12.40;3.38;;;;;;;8.36;72.29;101784.03;4932013;29;20056;-81
2020/12/21 06:04:01;;;;;;;14.43;3.58;;;;;;;8.33;72.14;101789.38;4943586;29;20056;-81
2020/12/21 09:36:54;;;;;;;2.10;1.35;;;;;;;19.29;48.93;101683.66;5129758;27;20372;-43
2020/12/21 09:39:21;;;;;;;3.72;0.90;;;;;;;19.31;48.46;101679.06;5071731;27;20052;-43
2020/12/21 09:41:47;;;;;;;4.32;1.20;;;;;;;19.35;48.36;101676.06;5080029;28;20033;-44
2020/12/21 09:44:13;;;;;;;1.65;1.10;;;;;;;19.40;47.87;101667.69;5073580;28;20127;-44
2020/12/21 09:46:39;;;;;;;1.63;0.88;;;;;;;19.42;47.87;101672.00;5082558;28;20039;-44
2020/12/21 09:49:05;;;;;;;1.50;0.80;;;;;;;19.45;47.74;101670.91;5086518;28;20119;-43
2020/12/21 09:51:31;;;;;;;1.80;0.90;;;;;;;19.49;47.51;101666.19;5069603;28;20032;-43
2020/12/21 09:53:58;;;;;;;3.75;0.90;;;;;;;19.50;47.48;101668.78;5073660;28;20059;-44
2020/12/21 09:56:24;;;;;;;4.47;0.90;;;;;;;19.51;47.48;101659.72;5071159;28;20041;-45
2020/12/21 09:58:51;;;;;;;3.90;0.90;;;;;;;19.52;47.50;101661.47;5068234;28;21223;-45
2020/12/21 10:01:18;;;;;;;4.10;1.00;;;;;;;19.54;47.31;101669.44;5080348;28;20047;-45
2020/12/21 10:03:44;;;;;;;2.38;0.90;;;;;;;19.55;47.08;101677.38;5073509;28;20134;-46
2020/12/21 10:06:11;;;;;;;2.55;0.88;;;;;;;19.55;46.89;101661.25;5074107;28;20036;-45
2020/12/21 10:08:39;;;;;;;3.13;0.93;;;;;;;19.57;46.83;101664.69;5086412;28;20136;-45
2020/12/21 10:11:06;;;;;;;1.98;1.00;;;;;;;19.57;46.88;101658.44;5072953;28;20072;-46
2020/12/21 10:13:32;;;;;;;8.73;1.00;;;;;;;19.59;46.81;101654.69;5074741;28;20110;-45
2020/12/21 10:15:59;;;;;;;7.22;1.00;;;;;;;19.60;46.70;101648.34;5083090;28;20068;-46
2020/12/21 10:18:26;;;;;;;4.32;1.20;;;;;;;19.60;46.77;101642.97;5075338;28;20052;-47
2020/12/21 10:20:52;;;;;;;7.88;1.25;;;;;;;19.60;46.70;101632.22;5082696;28;20051;-45
2020/12/21 10:23:19;;;;;;;3.80;0.80;;;;;;;19.60;46.53;101626.84;5068070;28;20079;-44
2020/12/21 10:25:46;;;;;;;10.05;1.27;;;;;;;19.60;46.58;101626.84;5065778;28;20514;-46
2020/12/21 10:28:13;;;;;;;5.07;1.15;;;;;;;19.61;46.55;101617.81;5069256;28;20120;-46
2020/12/21 10:30:39;;;;;;;4.00;0.90;;;;;;;19.61;46.37;101611.59;5081147;28;20072;-45
2020/12/21 10:33:05;;;;;;;2.38;1.48;;;;;;;19.60;46.40;101605.34;5073057;28;20452;-46
2020/12/21 10:35:31;;;;;;;2.72;0.85;;;;;;;19.61;46.22;101590.94;5067599;28;20044;-44
2020/12/21 10:37:58;;;;;;;2.58;1.00;;;;;;;19.61;46.51;101590.94;5070216;28;20056;-44
2020/12/21 10:40:24;;;;;;;2.70;0.88;;;;;;;19.62;46.26;101598.03;5072444;28;20052;-44
2020/12/21 10:42:50;;;;;;;3.67;0.90;;;;;;;19.62;46.31;101592.66;5067916;28;20043;-45
2020/12/21 10:45:16;;;;;;;1.52;0.77;;;;;;;19.67;46.19;101580.75;5068192;28;20051;-44
2020/12/21 10:47:42;;;;;;;3.25;0.98;;;;;;;19.68;45.95;101575.22;5055839;28;20076;-46
2020/12/21 10:50:08;;;;;;;4.57;1.10;;;;;;;19.70;45.83;101572.44;5056157;28;20037;-45
2020/12/21 10:52:35;;;;;;;3.03;1.05;;;;;;;19.71;45.93;101568.78;5056966;28;20048;-46
2020/12/21 10:55:01;;;;;;;4.25;1.00;;;;;;;19.70;45.66;101561.69;5063472;28;20040;-45
2020/12/21 10:57:28;;;;;;;1.95;0.80;;;;;;;19.70;45.89;101562.53;5053210;28;20045;-44
2020/12/21 10:59:54;;;;;;;1.88;0.88;;;;;;;19.69;45.80;101550.09;5054110;28;20045;-44
2020/12/21 11:02:20;;;;;;;2.28;0.80;;;;;;;19.71;45.60;101547.28;5054448;28;20115;-44
2020/12/21 11:04:47;;;;;;;2.35;0.90;;;;;;;19.72;45.63;101540.94;5065173;28;20407;-46
2020/12/21 11:07:14;;;;;;;1.67;0.85;;;;;;;19.72;45.55;101527.50;5056591;28;20498;-44
2020/12/21 11:09:41;;;;;;;1.73;0.88;;;;;;;19.73;45.63;101523.88;5054703;28;20419;-46
2020/12/21 11:12:07;;;;;;;1.45;0.88;;;;;;;19.73;45.37;101513.13;5060779;28;20484;-44
2020/12/21 11:14:33;;;;;;;2.28;0.73;;;;;;;19.72;45.60;101506.00;5053851;28;20491;-45
2020/12/21 11:16:59;;;;;;;2.42;0.88;;;;;;;19.71;45.54;101505.13;5063584;28;20111;-44
2020/12/21 11:19:25;;;;;;;1.75;1.00;;;;;;;19.72;45.63;101506.00;5073161;28;20044;-44
2020/12/21 11:21:51;;;;;;;1.98;0.80;;;;;;;19.72;45.44;101495.25;5060032;28;20518;-45
2020/12/21 11:24:17;;;;;;;1.50;0.90;;;;;;;19.71;45.54;101498.91;5062999;28;20428;-46
2020/12/21 11:26:43;;;;;;;1.65;0.70;;;;;;;19.70;45.36;101486.44;5063410;28;20495;-45
2020/12/21 11:29:09;;;;;;;3.00;0.80;;;;;;;19.70;45.42;101487.28;5052913;28;20499;-45
2020/12/21 11:31:36;;;;;;;14.25;2.30;;;;;;;19.72;43.73;101473.75;5051856;28;20057;-45
2020/12/21 11:34:05;;;;;;;3.53;1.05;;;;;;;19.56;45.18;101474.88;5053200;28;20052;-44
2020/12/21 11:36:31;;;;;;;9.20;1.27;;;;;;;19.54;45.31;101471.44;5057099;28;20045;-45
2020/12/21 11:38:57;;;;;;;4.47;1.20;;;;;;;19.57;45.29;101470.34;5068979;28;20127;-45
2020/12/21 11:41:30;;;;;;;3.67;1.40;;;;;;;19.57;45.19;101471.22;5066862;28;20045;-46
2020/12/21 11:43:56;;;;;;;5.35;1.42;;;;;;;19.58;45.22;101456.81;5064083;28;20057;-45
2020/12/21 11:46:36;;;;;;;7.05;1.40;;;;;;;19.60;45.24;101446.78;5051902;28;20499;-45
2020/12/21 11:49:02;;;;;;;4.10;1.50;;;;;;;19.61;45.15;101445.84;5054402;28;20043;-46
2020/12/21 11:51:29;;;;;;;8.38;1.40;;;;;;;19.61;45.29;101440.47;5054720;28;20052;-45
2020/12/21 11:53:55;;;;;;;5.47;1.27;;;;;;;19.62;45.36;101436.78;5054272;28;20131;-45
2020/12/21 11:56:22;;;;;;;4.75;1.20;;;;;;;19.63;45.20;101433.16;5072948;28;20040;-45
2020/12/21 11:58:48;;;;;;;6.15;1.40;;;;;;;19.62;45.16;101426.03;5051134;28;20490;-46
2020/12/21 12:01:16;;;;;;;2.10;0.98;;;;;;;19.63;45.17;101417.03;5054287;28;20388;-45
2020/12/21 12:03:42;;;;;;;4.80;1.10;;;;;;;19.63;45.18;101417.03;5057884;28;20164;-45
2020/12/21 12:06:09;;;;;;;3.30;1.17;;;;;;;19.64;45.32;101413.34;5056328;28;20656;-46
2020/12/21 12:08:35;;;;;;;2.53;1.05;;;;;;;19.64;45.14;101410.66;5055194;28;20049;-46
2020/12/21 12:11:03;;;;;;;5.57;1.10;;;;;;;19.64;45.37;101401.75;5051720;28;20060;-46
2020/12/21 12:13:30;;;;;;;4.10;1.20;;;;;;;19.63;45.06;101395.53;5052184;28;20753;-44
2020/12/21 12:15:56;;;;;;;2.70;1.20;;;;;;;19.65;45.26;101398.94;5053555;28;20033;-45
2020/12/21 12:18:22;;;;;;;3.08;1.00;;;;;;;19.69;45.12;101404.09;5056422;28;20129;-45
2020/12/21 12:20:49;;;;;;;2.78;1.13;;;;;;;19.70;45.05;101395.06;5055183;28;20558;-44
2020/12/21 12:23:15;;;;;;;2.85;1.08;;;;;;;19.71;44.97;101380.66;5051877;28;20120;-46
2020/12/21 12:25:41;;;;;;;2.30;1.10;;;;;;;19.73;44.90;101378.75;5053344;28;20037;-44
2020/12/21 12:28:07;;;;;;;4.55;1.27;;;;;;;19.72;44.97;101371.59;5057116;28;20119;-44
2020/12/21 12:30:34;;;;;;;2.58;1.10;;;;;;;19.73;44.79;101365.31;5051762;28;20052;-44
2020/12/21 12:33:00;;;;;;;2.95;1.65;;;;;;;19.74;44.96;101369.69;5052441;28;20399;-44
2020/12/21 12:35:26;;;;;;;3.78;1.10;;;;;;;19.74;44.80;101364.31;5057974;28;20056;-45
2020/12/21 12:37:52;;;;;;;4.53;1.08;;;;;;;19.73;45.04;101344.66;5053108;28;20072;-46
2020/12/21 12:40:18;;;;;;;3.42;1.30;;;;;;;19.74;44.93;101348.19;5059850;28;20040;-46
2020/12/21 12:42:46;;;;;;;3.20;1.10;;;;;;;19.74;44.93;101342.81;5056666;28;20060;-44
2020/12/21 12:45:12;;;;;;;3.78;1.15;;;;;;;19.74;44.97;101332.06;5053321;28;20060;-45
2020/12/21 12:47:38;;;;;;;1.58;0.93;;;;;;;19.75;44.94;101323.03;5052798;28;20123;-44
2020/12/21 12:50:05;;;;;;;5.47;1.10;;;;;;;19.75;44.72;101312.28;5051574;28;20072;-45
2020/12/21 12:52:34;;;;;;;2.08;0.90;;;;;;;19.74;44.88;101305.19;5050807;28;20067;-46
2020/12/21 12:55:01;;;;;;;9.45;1.10;;;;;;;19.74;44.76;101299.81;5052184;28;20044;-45
2020/12/21 12:57:27;;;;;;;1.52;0.80;;;;;;;19.73;44.87;101298.97;5055238;28;20124;-44
2020/12/21 12:59:53;;;;;;;2.08;1.02;;;;;;;19.74;44.77;101291.75;5051934;28;20120;-45
2020/12/21 13:02:25;;;;;;;2.72;0.90;;;;;;;19.72;44.90;101280.22;5057515;28;20063;-53
2020/12/21 13:04:51;;;;;;;1.90;0.90;;;;;;;19.80;44.74;101280.53;5056498;28;20111;-52
2020/12/21 15:43:01;;;;;;;2.55;1.27;;;;;;;19.88;46.48;100963.59;5104389;27;20367;-51
2020/12/21 15:48:01;;;;;;;2.08;0.88;;;;;;;19.81;45.15;100955.16;5072332;27;67152;-43
2020/12/21 15:50:47;;;;;;;;;;;;;;;19.85;44.70;100953.09;5018672;28;37329;-45
2020/12/21 15:53:14;;;;;;;2.42;0.90;;;;;;;19.91;44.45;100940.97;5014826;28;39693;-43
2020/12/21 15:55:40;;;;;;;3.13;0.70;;;;;;;19.92;44.44;100943.53;5014390;28;38053;-42
2020/12/21 15:58:07;;;;;;;1.33;0.70;;;;;;;19.92;44.33;100930.09;5015466;28;37888;-44
2020/12/21 16:00:34;;;;;;;1.10;0.70;;;;;;;19.92;44.34;100943.53;5016926;28;38402;-43
2020/12/21 16:03:01;;;;;;;2.13;1.27;;;;;;;19.94;44.20;100946.94;5017367;28;39443;-44
2020/12/21 16:08:51;;;;;;;1.30;0.80;;;;;;;20.21;43.66;100916.91;5028352;27;96780;-46
2020/12/21 16:11:17;;;;;;;1.50;0.77;;;;;;;20.28;43.28;100914.53;4976101;28;107219;-46
2020/12/21 16:13:44;;;;;;;1.73;1.38;;;;;;;20.31;43.03;100921.50;4980430;28;123931;-46
2020/12/21 16:16:11;;;;;;;1.17;0.80;;;;;;;20.29;43.01;100918.94;4987807;28;124229;-46
2020/12/21 16:18:38;;;;;;;1.13;0.70;;;;;;;20.30;43.01;100909.88;4989331;28;107520;-46
2020/12/21 16:21:07;;;;;;;2.05;1.45;;;;;;;20.30;42.94;100899.13;4978773;28;107479;-47
2020/12/21 16:23:33;;;;;;;2.30;1.00;;;;;;;20.29;42.90;100907.34;4997458;22;124225;-85
2020/12/21 16:26:03;;;;;;;1.27;0.80;;;;;;;20.25;42.85;100896.00;4987983;28;123942;-85
2020/12/21 16:28:39;;;;;;;2.20;0.70;;;;;;;20.24;42.98;100894.28;4983903;28;107312;-86
2020/12/21 16:31:06;;;;;;;1.25;0.60;;;;;;;20.20;42.90;100892.84;5006294;28;105659;-85
2020/12/21 16:33:33;;;;;;;1.10;0.80;;;;;;;20.18;43.32;100884.88;5012019;28;124878;-84
2020/12/21 16:36:03;;;;;;;2.08;0.77;;;;;;;20.17;43.24;100882.31;5007778;28;123995;-84
2020/12/21 16:38:31;;;;;;;1.17;0.60;;;;;;;20.14;43.28;100883.44;5015608;28;106662;-85
2020/12/21 16:40:58;;;;;;;1.15;0.90;;;;;;;20.11;43.43;100882.84;4993746;28;106748;-85
2020/12/21 16:43:28;;;;;;;0.88;0.70;;;;;;;20.11;43.36;100877.47;5010971;28;125274;-84
2020/12/21 16:45:55;;;;;;;0.98;0.70;;;;;;;20.11;43.37;100874.78;4995417;28;122956;-85
2020/12/21 16:48:22;;;;;;;0.52;0.40;;;;;;;20.10;43.39;100875.75;5005172;28;105952;-85
2020/12/21 16:50:49;;;;;;;1.45;0.90;;;;;;;20.09;43.36;100871.38;5007508;28;105576;-85
2020/12/21 16:53:15;;;;;;;0.95;0.70;;;;;;;20.10;43.29;100865.00;5008992;28;122278;-85
2020/12/21 16:55:42;;;;;;;1.05;0.60;;;;;;;20.07;43.26;100854.53;4996893;28;122174;-85
2020/12/21 16:58:09;;;;;;;0.93;0.70;;;;;;;20.07;43.47;100859.91;5008163;28;106474;-85
2020/12/21 17:00:35;;;;;;;0.80;0.50;;;;;;;20.07;43.33;100865.28;5015131;28;106368;-85
2020/12/21 17:03:02;;;;;;;1.33;1.23;;;;;;;20.07;43.42;100854.53;5015281;28;123946;-85
2020/12/21 17:05:29;;;;;;;0.85;0.55;;;;;;;20.05;43.47;100856.50;4992954;28;123539;-85
2020/12/21 17:07:57;;;;;;;2.05;0.73;;;;;;;20.03;43.50;100854.78;5000887;28;106715;-84
2020/12/21 17:10:24;;;;;;;0.70;0.60;;;;;;;20.01;43.42;100859.44;5013258;28;106371;-85
2020/12/21 17:12:50;;;;;;;0.88;0.80;;;;;;;20.01;43.51;100856.75;5017557;28;123955;-84
2020/12/21 17:15:18;;;;;;;1.00;0.77;;;;;;;20.01;43.42;100856.75;5002551;28;123227;-85
2020/12/21 17:17:45;;;;;;;1.00;0.60;;;;;;;19.99;43.57;100842.56;4999502;28;106534;-85
2020/12/21 17:20:11;;;;;;;1.00;0.80;;;;;;;19.98;43.59;100846.22;4984575;28;106664;-85
2020/12/21 17:22:38;;;;;;;0.90;0.70;;;;;;;19.98;43.55;100842.69;4986646;28;123605;-85
2020/12/21 17:25:05;;;;;;;0.90;0.70;;;;;;;19.97;43.50;100844.53;4996721;28;125176;-85
2020/12/21 17:27:31;;;;;;;0.80;0.73;;;;;;;19.98;43.52;100845.38;4982847;28;106927;-85
2020/12/21 17:29:58;;;;;;;0.73;0.60;;;;;;;19.97;43.35;100839.16;4990218;28;107110;-85
2020/12/21 17:32:25;;;;;;;1.17;0.80;;;;;;;19.97;43.42;100828.41;4977750;28;123286;-85
2020/12/21 17:34:51;;;;;;;0.90;0.70;;;;;;;19.96;43.39;100832.06;4980069;28;123983;-84
2020/12/21 17:37:18;;;;;;;1.23;0.85;;;;;;;19.96;43.38;100823.16;4996755;28;106902;-85
2020/12/21 17:39:44;;;;;;;1.20;0.90;;;;;;;19.95;43.47;100827.69;4996655;28;107472;-85